createdAt,value
2023-05-22T00:00:16.163Z,1023.557258
2023-05-22T00:05:15.998Z,1023.577349
2023-05-22T00:10:15.899Z,1023.616588
2023-05-22T00:15:16.398Z,1023.577502
2023-05-22T00:20:16.020Z,1023.556844
2023-05-22T00:25:16.105Z,1023.558684
2023-05-22T00:30:15.964Z,1023.579365
2023-05-22T00:35:15.976Z,1023.520315
2023-05-22T00:40:16.660Z,1023.501660
2023-05-22T00:45:16.479Z,1023.502595
2023-05-22T00:50:16.039Z,1023.486160
2023-05-22T00:55:16.333Z,1023.407616
2023-05-22T01:00:16.414Z,1023.307902
2023-05-22T01:05:16.732Z,1023.367812
2023-05-22T01:10:16.333Z,1023.368437
2023-05-22T01:15:16.471Z,1023.348881
2023-05-22T01:20:16.070Z,1023.290021
2023-05-22T01:25:15.896Z,1023.331059
2023-05-22T01:30:16.684Z,1023.291389
2023-05-22T01:35:15.938Z,1023.290626
2023-05-22T01:40:17.261Z,1023.210833
2023-05-22T01:45:16.832Z,1023.250338
2023-05-22T01:50:16.617Z,1023.210333
2023-05-22T01:55:16.026Z,1023.249755
2023-05-22T02:00:16.278Z,1023.209835
2023-05-22T02:05:16.176Z,1023.209544
2023-05-22T02:10:16.043Z,1023.230270
2023-05-22T02:15:15.912Z,1023.191037
2023-05-22T02:20:16.672Z,1023.150807
2023-05-22T02:25:16.593Z,1023.231689
2023-05-22T02:30:16.244Z,1023.333448
2023-05-22T02:35:16.496Z,1023.333473
2023-05-22T02:40:16.005Z,1023.393761
2023-05-22T02:45:15.946Z,1023.394245
2023-05-22T02:50:15.967Z,1023.415143
2023-05-22T02:55:16.507Z,1023.415708
2023-05-22T03:00:15.894Z,1023.396776
2023-05-22T03:05:17.145Z,1023.376707
2023-05-22T03:10:16.013Z,1023.337689
2023-05-22T03:15:16.404Z,1023.337345
2023-05-22T03:20:16.445Z,1023.317627
2023-05-22T03:25:16.064Z,1023.356849
2023-05-22T03:30:15.964Z,1023.417510
2023-05-22T03:35:16.801Z,1023.434205
2023-05-22T03:40:16.127Z,1023.473821
2023-05-22T03:45:16.334Z,1023.513590
2023-05-22T03:50:17.171Z,1023.553058
2023-05-22T03:55:16.003Z,1023.595728
2023-05-22T04:00:16.332Z,1023.616813
2023-05-22T04:05:16.170Z,1023.676585
2023-05-22T04:10:16.045Z,1023.756124
2023-05-22T04:15:16.828Z,1023.780281
2023-05-22T04:20:15.831Z,1023.841761
2023-05-22T04:25:15.956Z,1023.922560
2023-05-22T04:30:16.089Z,1023.941086
2023-05-22T04:35:15.980Z,1023.980894
2023-05-22T04:40:15.716Z,1023.979728
2023-05-22T04:45:16.352Z,1023.981671
2023-05-22T04:50:16.203Z,1023.981091
2023-05-22T04:55:16.096Z,1023.960774
2023-05-22T05:00:15.900Z,1024.062064
2023-05-22T05:05:16.312Z,1024.061206
2023-05-22T05:10:16.622Z,1024.039195
2023-05-22T05:15:16.499Z,1024.102784
2023-05-22T05:20:16.203Z,1024.122749
2023-05-22T05:25:16.392Z,1024.181948
2023-05-22T05:30:17.643Z,1024.221094
2023-05-22T05:35:16.218Z,1024.201187
2023-05-22T05:40:17.335Z,1024.222213
2023-05-22T05:45:16.253Z,1024.121868
2023-05-22T05:50:16.069Z,1024.123449
2023-05-22T05:55:15.817Z,1024.082289
2023-05-22T06:00:15.708Z,1024.101396
2023-05-22T06:05:15.912Z,1024.101512
2023-05-22T06:10:16.606Z,1024.120735
2023-05-22T06:15:16.340Z,1024.060297
2023-05-22T06:20:16.783Z,1024.080951
2023-05-22T06:25:16.789Z,1024.020815
2023-05-22T06:30:28.220Z,1024.080088
2023-05-22T06:35:15.866Z,1024.120091
2023-05-22T06:40:16.330Z,1024.101626
2023-05-22T06:45:16.163Z,1024.040829
2023-05-22T06:50:15.950Z,1024.041680
2023-05-22T06:55:15.737Z,1024.062388
2023-05-22T07:00:16.667Z,1024.000857
2023-05-22T07:05:16.611Z,1023.901897
2023-05-22T07:10:15.954Z,1023.860922
2023-05-22T07:15:16.648Z,1023.879613
2023-05-22T07:20:16.119Z,1023.821228
2023-05-22T07:25:16.192Z,1023.840309
2023-05-22T07:30:15.895Z,1023.799964
2023-05-22T07:35:16.488Z,1023.839227
2023-05-22T07:40:16.400Z,1023.899158
2023-05-22T07:45:16.104Z,1023.939726
2023-05-22T07:50:16.064Z,1023.960474
2023-05-22T07:55:15.968Z,1023.920710
2023-05-22T08:00:16.613Z,1023.899698
2023-05-22T08:05:16.102Z,1023.919785
2023-05-22T08:10:15.744Z,1023.900395
2023-05-22T08:15:15.953Z,1023.899820
2023-05-22T08:20:16.768Z,1023.879893
2023-05-22T08:25:16.086Z,1023.818899
2023-05-22T08:30:16.571Z,1023.859936
2023-05-22T08:35:16.225Z,1023.840021
2023-05-22T08:40:15.742Z,1023.819971
2023-05-22T08:45:16.312Z,1023.820083
2023-05-22T08:50:16.965Z,1023.879238
2023-05-22T08:55:17.257Z,1023.879380
2023-05-22T09:00:16.041Z,1023.878896
2023-05-22T09:05:15.834Z,1023.858904
2023-05-22T09:10:15.907Z,1023.877467
2023-05-22T09:15:17.636Z,1023.798127
2023-05-22T09:20:16.808Z,1023.839567
2023-05-22T09:25:16.296Z,1023.860179
2023-05-22T09:30:16.097Z,1023.859768
2023-05-22T09:35:16.217Z,1023.881185
2023-05-22T09:40:16.292Z,1023.901271
2023-05-22T09:45:16.934Z,1023.962474
2023-05-22T09:50:15.940Z,1023.962972
2023-05-22T09:55:16.159Z,1023.862974
2023-05-22T10:00:16.353Z,1023.902326
2023-05-22T10:05:16.299Z,1023.882987
2023-05-22T10:10:16.150Z,1023.842421
2023-05-22T10:15:16.475Z,1023.863238
2023-05-22T10:20:16.500Z,1023.847179
2023-05-22T10:25:16.209Z,1023.847200
2023-05-22T10:30:16.393Z,1023.826819
2023-05-22T10:35:15.830Z,1023.826328
2023-05-22T10:40:16.144Z,1023.805127
2023-05-22T10:45:15.832Z,1023.823628
2023-05-22T10:50:16.088Z,1023.823916
2023-05-22T10:55:16.117Z,1023.783626
2023-05-22T11:00:15.814Z,1023.783819
2023-05-22T11:05:15.880Z,1023.824124
2023-05-22T11:10:15.889Z,1023.844521
2023-05-22T11:15:17.107Z,1023.864318
2023-05-22T11:20:16.390Z,1023.842786
2023-05-22T11:25:16.102Z,1023.842066
2023-05-22T11:30:17.306Z,1023.841997
2023-05-22T11:35:16.005Z,1023.761956
2023-05-22T11:40:16.162Z,1023.821716
2023-05-22T11:45:16.047Z,1023.760511
2023-05-22T11:50:22.822Z,1023.800123
2023-05-22T11:55:16.723Z,1023.780304
2023-05-22T12:00:15.890Z,1023.801460
2023-05-22T12:05:15.860Z,1023.683073
2023-05-22T12:10:15.966Z,1023.623409
2023-05-22T12:15:15.854Z,1023.564008
2023-05-22T12:20:16.458Z,1023.543863
2023-05-22T12:25:15.902Z,1023.503819
2023-05-22T12:30:16.394Z,1023.523179
2023-05-22T12:35:16.280Z,1023.543985
2023-05-22T12:40:16.086Z,1023.424258
2023-05-22T12:45:16.267Z,1023.422333
2023-05-22T12:50:17.306Z,1023.463675
2023-05-22T12:55:16.712Z,1023.383735
2023-05-22T13:00:15.717Z,1023.243513
2023-05-22T13:05:15.969Z,1023.203159
2023-05-22T13:10:16.158Z,1023.302782
2023-05-22T13:15:15.707Z,1023.321309
2023-05-22T13:20:16.144Z,1023.340416
2023-05-22T13:25:15.934Z,1023.360003
2023-05-22T13:30:16.910Z,1023.440597
2023-05-22T13:35:16.053Z,1023.439593
2023-05-22T13:40:15.876Z,1023.399072
2023-05-22T13:45:17.175Z,1023.419783
2023-05-22T13:50:15.980Z,1023.420293
2023-05-22T13:55:16.377Z,1023.419461
2023-05-22T14:00:15.905Z,1023.458761
2023-05-22T14:05:16.597Z,1023.415427
2023-05-22T14:10:16.381Z,1023.453506
2023-05-22T14:15:16.291Z,1023.494977
2023-05-22T14:20:15.975Z,1023.413576
2023-05-22T14:25:15.897Z,1023.352639
2023-05-22T14:30:16.709Z,1023.352200
2023-05-22T14:35:16.847Z,1023.350853
2023-05-22T14:40:16.594Z,1023.408935
2023-05-22T14:45:16.469Z,1023.371355
2023-05-22T14:50:19.966Z,1023.313556
2023-05-22T14:55:15.964Z,1023.375006
2023-05-22T15:00:15.956Z,1023.334731
2023-05-22T15:05:16.926Z,1023.337125
2023-05-22T15:10:17.086Z,1023.375304
2023-05-22T15:15:16.654Z,1023.413130
2023-05-22T15:20:15.802Z,1023.394954
2023-05-22T15:25:15.874Z,1023.395513
2023-05-22T15:30:16.146Z,1023.396398
2023-05-22T15:35:16.981Z,1023.397336
2023-05-22T15:40:15.818Z,1023.437440
2023-05-22T15:45:15.625Z,1023.415933
2023-05-22T15:50:16.879Z,1023.414736
2023-05-22T15:55:15.993Z,1023.432606
2023-05-22T16:00:18.381Z,1023.392616
2023-05-22T16:05:16.141Z,1023.433232
2023-05-22T16:10:16.279Z,1023.432290
2023-05-22T16:15:16.750Z,1023.432415
2023-05-22T16:20:16.225Z,1023.432707
2023-05-22T16:25:15.923Z,1023.433994
2023-05-22T16:30:16.372Z,1023.413473
2023-05-22T16:35:16.364Z,1023.433624
2023-05-22T16:40:15.910Z,1023.453625
2023-05-22T16:45:16.351Z,1023.494437
2023-05-22T16:50:16.010Z,1023.514029
2023-05-22T16:55:15.923Z,1023.555014
2023-05-22T17:00:16.115Z,1023.513813
2023-05-22T17:05:16.601Z,1023.472199
2023-05-22T17:10:15.894Z,1023.428653
2023-05-22T17:15:16.384Z,1023.388416
2023-05-22T17:20:16.572Z,1023.467797
2023-05-22T17:25:16.369Z,1023.444220
2023-05-22T17:30:15.846Z,1023.443121
2023-05-22T17:35:16.489Z,1023.462809
2023-05-22T17:40:16.693Z,1023.465800
2023-05-22T17:45:16.121Z,1023.485078
2023-05-22T17:50:16.117Z,1023.501823
2023-05-22T17:55:16.242Z,1023.482509
2023-05-22T18:00:15.973Z,1023.461817
2023-05-22T18:05:15.838Z,1023.478714
2023-05-22T18:10:15.898Z,1023.456817
2023-05-22T18:15:16.204Z,1023.496221
2023-05-22T18:20:16.225Z,1023.497859
2023-05-22T18:25:15.802Z,1023.471191
2023-05-22T18:30:15.876Z,1023.389577
2023-05-22T18:35:16.267Z,1023.431544
2023-05-22T18:40:16.264Z,1023.407455
2023-05-22T18:45:16.398Z,1023.427201
2023-05-22T18:50:15.761Z,1023.428531
2023-05-22T18:55:15.673Z,1023.411610
2023-05-22T19:00:16.525Z,1023.348666
2023-05-22T19:05:15.764Z,1023.309484
2023-05-22T19:10:17.117Z,1023.209445
2023-05-22T19:15:15.727Z,1023.207664
2023-05-22T19:20:17.271Z,1023.187943
2023-05-22T19:25:16.326Z,1023.166812
2023-05-22T19:30:17.142Z,1023.205480
2023-05-22T19:35:16.471Z,1023.159944
2023-05-22T19:40:17.592Z,1023.098779
2023-05-22T19:45:15.935Z,1023.059439
2023-05-22T19:50:16.448Z,1023.095309
2023-05-22T19:55:15.984Z,1023.038553
2023-05-22T20:00:16.649Z,1023.079730
2023-05-22T20:05:16.480Z,1023.076763
2023-05-22T20:10:16.592Z,1023.016629
2023-05-22T20:15:15.896Z,1023.059439
2023-05-22T20:20:15.956Z,1023.039557
2023-05-22T20:25:17.324Z,1023.020366
2023-05-22T20:30:16.936Z,1022.978376
2023-05-22T20:35:16.757Z,1022.999634
2023-05-22T20:40:16.017Z,1022.999307
2023-05-22T20:45:16.437Z,1022.915949
2023-05-22T20:50:16.272Z,1022.917315
2023-05-22T20:55:16.255Z,1022.895203
2023-05-22T21:00:16.214Z,1022.875841
2023-05-22T21:05:15.950Z,1022.916919
2023-05-22T21:10:17.344Z,1022.875074
2023-05-22T21:15:16.480Z,1022.878689
2023-05-22T21:20:15.812Z,1022.898385
2023-05-22T21:25:16.307Z,1022.898801
2023-05-22T21:30:17.192Z,1022.858678
2023-05-22T21:35:17.079Z,1022.939628
2023-05-22T21:45:16.669Z,1022.918997
2023-05-22T21:50:16.567Z,1022.798459
2023-05-22T21:55:16.701Z,1022.817667
2023-05-22T22:00:16.267Z,1022.757879
2023-05-22T22:05:15.821Z,1022.796239
2023-05-22T22:10:15.974Z,1022.756969
2023-05-22T22:15:16.093Z,1022.697012
2023-05-22T22:20:17.415Z,1022.796101
2023-05-22T22:25:16.685Z,1022.795995
2023-05-22T22:30:16.506Z,1022.793833
2023-05-22T22:35:16.818Z,1022.815205
2023-05-22T22:40:17.220Z,1022.735252
2023-05-22T22:45:17.079Z,1022.694110
2023-05-22T22:50:16.120Z,1022.713710
2023-05-22T22:55:16.265Z,1022.673359
2023-05-22T23:00:16.545Z,1022.653693
2023-05-22T23:05:16.180Z,1022.653626
2023-05-22T23:10:16.528Z,1022.572741
2023-05-22T23:15:16.183Z,1022.551559
2023-05-22T23:20:16.471Z,1022.652903
2023-05-22T23:25:16.209Z,1022.531824
2023-05-22T23:30:15.980Z,1022.552038
2023-05-22T23:35:15.690Z,1022.510550
2023-05-22T23:40:17.331Z,1022.491313
2023-05-22T23:45:17.325Z,1022.472686
2023-05-22T23:50:16.675Z,1022.453798
2023-05-22T23:55:15.856Z,1022.432291
